Time;durP1;ratioP1;P1;durP2;ratioP2;P2;SDS_P1;SDS_P2;PMS_P1;PMS_P2;Temp;Humidity;BMP_temperature;BMP_pressure;BME280_temperature;BME280_humidity;BME280_pressure;Samples;Min_cycle;Max_cycle;Signal;HPM_P1;HPM_P2
2022/08/07 00:01:08;;;;;;;2.85;1.30;;;;;;;;;;5039828;28;20219;-69
2022/08/07 00:03:34;;;;;;;1.33;1.25;;;;;;;;;;5039568;28;20235;-69
2022/08/07 00:06:00;;;;;;;1.40;1.10;;;;;;;;;;5039506;28;20392;-69
2022/08/07 00:08:27;;;;;;;1.83;1.73;;;;;;;;;;5039531;28;20259;-69
2022/08/07 00:10:53;;;;;;;1.30;1.20;;;;;;;;;;5039452;28;20201;-69
2022/08/07 00:13:20;;;;;;;1.52;1.42;;;;;;;;;;5039574;28;20282;-69
2022/08/07 00:15:46;;;;;;;2.10;1.35;;;;;;;;;;5039647;28;20234;-69
2022/08/07 00:18:14;;;;;;;1.95;1.52;;;;;;;;;;5039352;28;20205;-69
2022/08/07 00:20:40;;;;;;;1.40;1.40;;;;;;;;;;5039545;28;20198;-69
2022/08/07 00:23:06;;;;;;;2.50;1.10;;;;;;;;;;5039374;28;20543;-69
2022/08/07 00:25:33;;;;;;;1.17;1.17;;;;;;;;;;5039145;28;20198;-69
2022/08/07 00:27:59;;;;;;;1.58;1.30;;;;;;;;;;5039539;28;20489;-69
2022/08/07 00:30:25;;;;;;;3.03;1.40;;;;;;;;;;5039333;28;20202;-69
2022/08/07 00:32:51;;;;;;;1.52;1.52;;;;;;;;;;5039331;28;20198;-69
2022/08/07 00:35:19;;;;;;;2.15;1.63;;;;;;;;;;5039251;28;20198;-69
2022/08/07 00:37:46;;;;;;;1.10;1.10;;;;;;;;;;5038831;28;20232;-69
2022/08/07 00:40:13;;;;;;;3.92;1.60;;;;;;;;;;5039332;28;20205;-69
2022/08/07 00:42:40;;;;;;;3.95;1.15;;;;;;;;;;5039399;28;20363;-69
2022/08/07 00:45:07;;;;;;;1.65;1.27;;;;;;;;;;5039203;28;20380;-69
2022/08/07 00:47:33;;;;;;;1.75;1.63;;;;;;;;;;5040418;28;20198;-69
2022/08/07 00:50:00;;;;;;;2.45;1.80;;;;;;;;;;5042730;28;20197;-69
2022/08/07 00:52:28;;;;;;;2.28;1.85;;;;;;;;;;5042413;28;20198;-69
2022/08/07 00:54:54;;;;;;;1.70;1.60;;;;;;;;;;5042372;28;20202;-69
2022/08/07 00:57:21;;;;;;;1.50;1.50;;;;;;;;;;5042396;28;20266;-69
2022/08/07 00:59:47;;;;;;;1.48;1.38;;;;;;;;;;5042457;28;20198;-69
2022/08/07 01:02:14;;;;;;;1.58;1.48;;;;;;;;;;5042748;28;20224;-69
2022/08/07 01:04:41;;;;;;;1.70;1.65;;;;;;;;;;5042175;28;20218;-69
2022/08/07 01:07:07;;;;;;;1.70;1.60;;;;;;;;;;5041821;28;20206;-69
2022/08/07 01:09:35;;;;;;;2.33;2.08;;;;;;;;;;5042219;28;20206;-69
2022/08/07 01:12:01;;;;;;;2.80;2.15;;;;;;;;;;5042354;28;20205;-69
2022/08/07 01:14:27;;;;;;;3.10;2.08;;;;;;;;;;5042163;28;20480;-69
2022/08/07 01:16:54;;;;;;;4.20;2.15;;;;;;;;;;5041844;28;20214;-69
2022/08/07 01:19:21;;;;;;;3.42;1.65;;;;;;;;;;5042176;28;20198;-69
2022/08/07 01:21:50;;;;;;;3.50;2.17;;;;;;;;;;5042028;28;20201;-69
2022/08/07 01:24:17;;;;;;;1.73;1.63;;;;;;;;;;5042266;28;20222;-69
2022/08/07 01:26:44;;;;;;;1.83;1.73;;;;;;;;;;5041892;28;20235;-69
2022/08/07 01:29:10;;;;;;;1.90;1.80;;;;;;;;;;5042110;28;20198;-69
2022/08/07 01:31:37;;;;;;;1.95;1.95;;;;;;;;;;5042011;28;20387;-69
2022/08/07 01:34:04;;;;;;;2.15;1.95;;;;;;;;;;5042430;28;20202;-69
2022/08/07 01:36:31;;;;;;;2.35;2.20;;;;;;;;;;5041632;28;20220;-69
2022/08/07 01:38:58;;;;;;;4.78;2.30;;;;;;;;;;5041885;28;20197;-69
2022/08/07 01:41:25;;;;;;;2.10;2.00;;;;;;;;;;5041957;28;20197;-69
2022/08/07 01:43:51;;;;;;;2.00;1.88;;;;;;;;;;5041772;28;20571;-69
2022/08/07 01:46:19;;;;;;;2.88;2.13;;;;;;;;;;5041537;28;20198;-69
2022/08/07 01:48:46;;;;;;;2.13;1.90;;;;;;;;;;5041663;28;20507;-69
2022/08/07 01:51:14;;;;;;;2.72;2.45;;;;;;;;;;5041953;28;20243;-69
2022/08/07 01:53:44;;;;;;;2.88;1.90;;;;;;;;;;5041651;28;20239;-69
2022/08/07 01:56:14;;;;;;;2.83;2.00;;;;;;;;;;5041181;28;20554;-69
2022/08/07 01:58:44;;;;;;;2.33;2.20;;;;;;;;;;5039807;28;20289;-69
2022/08/07 02:01:12;;;;;;;2.35;2.25;;;;;;;;;;5041605;28;20198;-69
2022/08/07 02:03:40;;;;;;;2.45;2.28;;;;;;;;;;5041482;28;20197;-69
2022/08/07 02:06:07;;;;;;;4.03;2.10;;;;;;;;;;5041265;28;20229;-69
2022/08/07 02:08:36;;;;;;;2.35;2.03;;;;;;;;;;5041380;28;20205;-69
2022/08/07 02:11:03;;;;;;;2.72;1.92;;;;;;;;;;5041149;28;20367;-69
2022/08/07 02:13:32;;;;;;;2.63;2.00;;;;;;;;;;5041518;28;20197;-69
2022/08/07 02:16:00;;;;;;;2.78;2.00;;;;;;;;;;5041195;28;20197;-69
2022/08/07 02:18:26;;;;;;;2.00;1.90;;;;;;;;;;5041251;28;20235;-69
2022/08/07 02:20:54;;;;;;;2.53;2.20;;;;;;;;;;5041281;28;20201;-69
2022/08/07 02:23:22;;;;;;;3.03;2.40;;;;;;;;;;5040998;28;20205;-69
2022/08/07 02:25:49;;;;;;;4.30;2.47;;;;;;;;;;5040936;28;20266;-69
2022/08/07 02:28:17;;;;;;;2.38;2.15;;;;;;;;;;5041039;28;20198;-69
2022/08/07 02:30:45;;;;;;;3.15;2.22;;;;;;;;;;5041197;28;20202;-69
2022/08/07 02:33:13;;;;;;;3.33;2.20;;;;;;;;;;5040863;28;20232;-69
2022/08/07 02:35:40;;;;;;;2.45;2.35;;;;;;;;;;5040969;28;20224;-69
2022/08/07 02:38:07;;;;;;;2.45;2.35;;;;;;;;;;5040659;28;20509;-69
2022/08/07 02:40:34;;;;;;;3.05;2.53;;;;;;;;;;5041024;28;20519;-69
2022/08/07 02:43:01;;;;;;;3.55;2.50;;;;;;;;;;5040716;28;20198;-69
2022/08/07 02:45:30;;;;;;;2.40;2.20;;;;;;;;;;5040981;28;20218;-69
2022/08/07 02:47:58;;;;;;;2.20;2.10;;;;;;;;;;5040556;28;20513;-69
2022/08/07 02:50:24;;;;;;;2.08;1.92;;;;;;;;;;5040709;28;20489;-69
2022/08/07 02:52:53;;;;;;;3.85;2.35;;;;;;;;;;5040496;28;20543;-69
2022/08/07 02:55:21;;;;;;;2.40;2.13;;;;;;;;;;5040644;28;20194;-69
2022/08/07 02:57:48;;;;;;;3.47;1.83;;;;;;;;;;5040389;28;20202;-69
2022/08/07 03:00:15;;;;;;;2.10;2.00;;;;;;;;;;5040681;28;20206;-69
2022/08/07 03:02:44;;;;;;;2.00;1.90;;;;;;;;;;5040565;28;20503;-69
2022/08/07 03:05:12;;;;;;;1.80;1.70;;;;;;;;;;5040190;28;20226;-69
2022/08/07 03:07:40;;;;;;;2.30;1.83;;;;;;;;;;5040460;28;20202;-69
2022/08/07 03:10:07;;;;;;;1.92;1.83;;;;;;;;;;5040455;28;20518;-69
2022/08/07 03:12:34;;;;;;;1.67;1.65;;;;;;;;;;5040437;28;20431;-69
2022/08/07 03:15:01;;;;;;;1.60;1.52;;;;;;;;;;5040477;28;20231;-69
2022/08/07 03:17:27;;;;;;;2.05;1.75;;;;;;;;;;5040133;28;20198;-69
2022/08/07 03:19:53;;;;;;;5.13;1.55;;;;;;;;;;5040142;28;20235;-69
2022/08/07 03:22:22;;;;;;;4.00;1.60;;;;;;;;;;5040544;28;20201;-69
2022/08/07 03:24:48;;;;;;;1.90;1.80;;;;;;;;;;5040240;28;20244;-69
2022/08/07 03:27:15;;;;;;;2.38;1.65;;;;;;;;;;5040000;28;20197;-69
2022/08/07 03:29:42;;;;;;;1.85;1.73;;;;;;;;;;5040193;28;20202;-69
2022/08/07 03:32:10;;;;;;;1.90;1.80;;;;;;;;;;5040028;28;20439;-69
2022/08/07 03:34:37;;;;;;;2.10;1.60;;;;;;;;;;5040112;28;20397;-69
2022/08/07 03:37:04;;;;;;;1.77;1.67;;;;;;;;;;5039958;28;20506;-69
2022/08/07 03:39:34;;;;;;;4.55;2.00;;;;;;;;;;5040024;28;20243;-69
2022/08/07 03:42:00;;;;;;;4.03;2.13;;;;;;;;;;5039831;28;20262;-69
2022/08/07 03:44:27;;;;;;;2.20;1.80;;;;;;;;;;5040081;28;20274;-69
2022/08/07 03:46:53;;;;;;;3.28;2.20;;;;;;;;;;5039702;28;20202;-69
2022/08/07 03:49:19;;;;;;;2.65;2.45;;;;;;;;;;5039898;28;20201;-69
2022/08/07 03:51:46;;;;;;;2.20;2.10;;;;;;;;;;5039930;28;20505;-69
2022/08/07 03:54:12;;;;;;;2.70;2.50;;;;;;;;;;5039768;28;20233;-69
2022/08/07 03:56:41;;;;;;;2.70;2.50;;;;;;;;;;5039259;28;20198;-69
2022/08/07 03:59:07;;;;;;;3.33;3.03;;;;;;;;;;5039633;28;20423;-69
2022/08/07 04:01:34;;;;;;;3.63;3.42;;;;;;;;;;5039980;28;20206;-69
2022/08/07 04:04:00;;;;;;;3.72;3.42;;;;;;;;;;5039611;28;20197;-69
2022/08/07 04:06:26;;;;;;;3.63;3.42;;;;;;;;;;5039340;28;20218;-69
2022/08/07 04:08:53;;;;;;;3.90;3.60;;;;;;;;;;5039457;28;20200;-69
2022/08/07 04:11:19;;;;;;;3.55;3.35;;;;;;;;;;5039521;28;20205;-69
2022/08/07 04:13:47;;;;;;;2.92;2.58;;;;;;;;;;5039419;28;20198;-69
2022/08/07 04:16:13;;;;;;;3.17;2.63;;;;;;;;;;5039502;28;20201;-68
2022/08/07 04:18:40;;;;;;;2.67;2.10;;;;;;;;;;5039502;28;20202;-68
2022/08/07 04:21:06;;;;;;;2.53;2.38;;;;;;;;;;5039214;28;20197;-68
2022/08/07 04:23:33;;;;;;;1.70;1.70;;;;;;;;;;5038925;28;20206;-68
2022/08/07 04:25:59;;;;;;;2.40;2.00;;;;;;;;;;5039219;28;20479;-69
2022/08/07 04:28:25;;;;;;;2.15;1.50;;;;;;;;;;5039614;28;20209;-68
2022/08/07 04:30:53;;;;;;;2.00;1.70;;;;;;;;;;5039240;28;20198;-68
2022/08/07 04:33:20;;;;;;;1.30;1.20;;;;;;;;;;5039431;28;20487;-68
2022/08/07 04:35:46;;;;;;;2.63;1.50;;;;;;;;;;5039404;28;20200;-68
2022/08/07 04:38:13;;;;;;;1.67;1.30;;;;;;;;;;5038972;28;20633;-68
2022/08/07 04:40:41;;;;;;;1.52;1.50;;;;;;;;;;5039091;28;20198;-69
2022/08/07 04:43:07;;;;;;;1.77;1.67;;;;;;;;;;5039185;28;20201;-68
2022/08/07 04:45:37;;;;;;;1.23;1.23;;;;;;;;;;5039121;28;20221;-68
2022/08/07 04:48:09;;;;;;;1.63;1.45;;;;;;;;;;5038911;28;20197;-68
2022/08/07 04:50:38;;;;;;;1.67;1.58;;;;;;;;;;5039091;28;20197;-68
2022/08/07 04:53:05;;;;;;;2.85;1.60;;;;;;;;;;5039001;28;20505;-68
2022/08/07 04:55:32;;;;;;;1.80;1.80;;;;;;;;;;5038871;28;20231;-68
2022/08/07 04:58:03;;;;;;;2.78;2.08;;;;;;;;;;5038811;28;20504;-68
2022/08/07 05:00:38;;;;;;;1.60;1.50;;;;;;;;;;5039103;28;20198;-68
2022/08/07 05:03:11;;;;;;;2.05;1.95;;;;;;;;;;5039012;28;20549;-68
2022/08/07 05:05:42;;;;;;;1.90;1.80;;;;;;;;;;5038652;28;20222;-68
2022/08/07 05:08:12;;;;;;;2.20;2.10;;;;;;;;;;5038515;28;20198;-68
2022/08/07 05:10:40;;;;;;;3.05;2.13;;;;;;;;;;5039066;28;20198;-68
2022/08/07 05:13:07;;;;;;;2.03;1.80;;;;;;;;;;5039211;28;20505;-69
2022/08/07 05:15:35;;;;;;;2.10;2.00;;;;;;;;;;5038900;28;20197;-69
2022/08/07 05:18:04;;;;;;;1.70;1.60;;;;;;;;;;5038622;28;20205;-69
2022/08/07 05:20:34;;;;;;;1.92;1.83;;;;;;;;;;5038548;28;20372;-68
2022/08/07 05:23:03;;;;;;;2.10;2.00;;;;;;;;;;5039017;28;20407;-68
2022/08/07 05:25:31;;;;;;;3.30;2.05;;;;;;;;;;5038836;28;20560;-68
2022/08/07 05:27:58;;;;;;;3.72;2.15;;;;;;;;;;5038483;28;20205;-68
2022/08/07 05:30:24;;;;;;;2.08;1.98;;;;;;;;;;5038510;28;20205;-68
2022/08/07 05:32:51;;;;;;;2.00;1.90;;;;;;;;;;5038650;28;20202;-68
2022/08/07 05:35:18;;;;;;;2.75;2.10;;;;;;;;;;5040882;28;20194;-68
2022/08/07 05:37:46;;;;;;;2.05;1.80;;;;;;;;;;5041641;28;20233;-68
2022/08/07 05:40:13;;;;;;;2.70;1.95;;;;;;;;;;5041938;28;20209;-68
2022/08/07 05:42:39;;;;;;;1.80;1.70;;;;;;;;;;5041937;28;20265;-68
2022/08/07 05:45:06;;;;;;;3.88;1.92;;;;;;;;;;5041584;28;20218;-68
2022/08/07 05:47:33;;;;;;;2.47;1.95;;;;;;;;;;5041419;28;20198;-68
2022/08/07 05:49:59;;;;;;;2.15;1.70;;;;;;;;;;5042000;28;20198;-68
2022/08/07 05:52:26;;;;;;;1.60;1.50;;;;;;;;;;5041869;28;20204;-68
2022/08/07 05:54:53;;;;;;;1.70;1.60;;;;;;;;;;5041441;28;20208;-68
2022/08/07 05:57:20;;;;;;;1.33;1.33;;;;;;;;;;5041399;28;20197;-68
2022/08/07 05:59:47;;;;;;;2.00;1.55;;;;;;;;;;5041637;28;20197;-68
2022/08/07 06:02:15;;;;;;;2.25;2.05;;;;;;;;;;5041391;28;20505;-68
2022/08/07 06:04:45;;;;;;;1.60;1.50;;;;;;;;;;5041472;28;20431;-68
2022/08/07 06:07:11;;;;;;;2.30;2.10;;;;;;;;;;5041205;28;20243;-68
2022/08/07 06:09:38;;;;;;;3.20;2.22;;;;;;;;;;5041358;28;20528;-69
2022/08/07 06:12:06;;;;;;;2.33;2.20;;;;;;;;;;5041325;28;20198;-69
2022/08/07 06:14:32;;;;;;;3.03;2.78;;;;;;;;;;5041250;28;20197;-69
2022/08/07 06:17:00;;;;;;;3.88;1.98;;;;;;;;;;5041041;28;20210;-69
2022/08/07 06:19:27;;;;;;;2.40;2.20;;;;;;;;;;5041484;28;20205;-69
2022/08/07 06:21:54;;;;;;;2.03;2.03;;;;;;;;;;5041177;28;20190;-69
2022/08/07 06:24:20;;;;;;;2.88;2.25;;;;;;;;;;5041135;28;20508;-69
2022/08/07 06:26:46;;;;;;;2.60;2.40;;;;;;;;;;5040882;28;20267;-69
2022/08/07 06:29:14;;;;;;;2.40;2.30;;;;;;;;;;5041408;28;20525;-69
2022/08/07 06:31:40;;;;;;;3.45;2.20;;;;;;;;;;5041167;28;20435;-69
2022/08/07 06:34:06;;;;;;;3.60;3.30;;;;;;;;;;5041139;28;20198;-69
2022/08/07 06:36:33;;;;;;;4.35;4.05;;;;;;;;;;5040868;28;20239;-69
2022/08/07 06:38:59;;;;;;;2.50;2.40;;;;;;;;;;5040977;28;20205;-69
2022/08/07 06:41:28;;;;;;;2.88;2.67;;;;;;;;;;5041312;28;20498;-69
2022/08/07 06:43:54;;;;;;;3.00;2.80;;;;;;;;;;5040729;28;20197;-69
2022/08/07 06:46:22;;;;;;;2.78;2.17;;;;;;;;;;5040202;28;20233;-69
2022/08/07 06:48:48;;;;;;;2.50;2.30;;;;;;;;;;5040877;28;20206;-69
2022/08/07 06:51:16;;;;;;;7.50;5.95;;;;;;;;;;5040861;28;20234;-69
2022/08/07 06:53:43;;;;;;;3.97;2.85;;;;;;;;;;5040677;28;20213;-69
2022/08/07 06:56:10;;;;;;;2.58;2.40;;;;;;;;;;5040508;28;20193;-69
2022/08/07 06:58:37;;;;;;;2.20;2.10;;;;;;;;;;5040576;28;20206;-69
2022/08/07 07:01:05;;;;;;;2.00;1.98;;;;;;;;;;5040662;28;20198;-69
2022/08/07 07:03:34;;;;;;;2.00;2.00;;;;;;;;;;5040712;28;20580;-69
2022/08/07 07:06:00;;;;;;;1.63;1.63;;;;;;;;;;5040326;28;20429;-69
2022/08/07 07:08:27;;;;;;;4.07;1.67;;;;;;;;;;5040445;28;20210;-68
2022/08/07 07:10:54;;;;;;;1.48;1.45;;;;;;;;;;5040358;28;20205;-69
2022/08/07 07:13:23;;;;;;;21.58;15.00;;;;;;;;;;5040339;28;20198;-69
2022/08/07 07:15:53;;;;;;;2.38;1.77;;;;;;;;;;5040369;28;20266;-69
2022/08/07 07:18:22;;;;;;;1.58;1.40;;;;;;;;;;5040257;28;20213;-69
2022/08/07 07:20:52;;;;;;;1.63;1.52;;;;;;;;;;5040311;28;20197;-69
2022/08/07 07:23:19;;;;;;;1.38;1.33;;;;;;;;;;5040673;28;20557;-69
2022/08/07 07:25:47;;;;;;;1.23;1.13;;;;;;;;;;5040080;28;20255;-69
2022/08/07 07:28:16;;;;;;;2.40;1.35;;;;;;;;;;5040010;28;20193;-69
2022/08/07 07:30:45;;;;;;;2.17;1.30;;;;;;;;;;5039962;28;20213;-69
2022/08/07 07:33:13;;;;;;;1.45;1.45;;;;;;;;;;5040123;28;20509;-69
2022/08/07 07:35:41;;;;;;;1.33;1.33;;;;;;;;;;5040128;28;20194;-69
2022/08/07 07:38:09;;;;;;;1.50;1.40;;;;;;;;;;5039615;28;20551;-69
2022/08/07 07:40:37;;;;;;;1.02;1.00;;;;;;;;;;5039837;28;20224;-69
2022/08/07 07:43:04;;;;;;;1.17;1.17;;;;;;;;;;5040110;28;20345;-69
2022/08/07 07:45:31;;;;;;;1.42;0.90;;;;;;;;;;5039872;28;20283;-69
2022/08/07 07:47:59;;;;;;;1.85;1.35;;;;;;;;;;5039719;28;20224;-69
2022/08/07 07:50:27;;;;;;;1.17;0.95;;;;;;;;;;5039637;28;20205;-69
2022/08/07 07:52:54;;;;;;;1.45;1.10;;;;;;;;;;5040078;28;20206;-69
2022/08/07 07:55:22;;;;;;;0.98;0.98;;;;;;;;;;5040060;28;20198;-69
2022/08/07 07:57:50;;;;;;;0.82;0.82;;;;;;;;;;5038675;28;20205;-69
2022/08/07 08:00:16;;;;;;;0.85;0.85;;;;;;;;;;5039610;28;20497;-69
2022/08/07 08:02:44;;;;;;;1.80;1.70;;;;;;;;;;5039751;28;20378;-69
2022/08/07 08:05:11;;;;;;;0.90;0.90;;;;;;;;;;5039568;28;20225;-69
2022/08/07 08:07:38;;;;;;;3.22;1.95;;;;;;;;;;5039475;28;20413;-69
2022/08/07 08:10:05;;;;;;;1.05;0.80;;;;;;;;;;5039468;28;20205;-69
2022/08/07 08:12:33;;;;;;;0.85;0.85;;;;;;;;;;5039529;28;20209;-69
2022/08/07 08:15:00;;;;;;;1.40;1.40;;;;;;;;;;5039909;28;20202;-69
2022/08/07 08:17:27;;;;;;;2.28;1.17;;;;;;;;;;5039730;28;20201;-69
2022/08/07 08:19:56;;;;;;;1.20;1.20;;;;;;;;;;5039441;28;20208;-69
2022/08/07 08:27:54;;;;;;;1.05;1.00;;;;;;;;;;5039137;28;20381;-69
2022/08/07 08:30:21;;;;;;;1.45;0.93;;;;;;;;;;5039257;28;20205;-69
2022/08/07 08:32:49;;;;;;;2.35;1.73;;;;;;;;;;5039320;28;20211;-69
2022/08/07 08:35:18;;;;;;;1.45;0.88;;;;;;;;;;5039438;28;20205;-68
2022/08/07 08:37:45;;;;;;;1.58;0.60;;;;;;;;;;5038992;28;20299;-71
2022/08/07 08:40:14;;;;;;;0.88;0.88;;;;;;;;;;5039422;28;20618;-61
2022/08/07 08:42:42;;;;;;;1.15;1.15;;;;;;;;;;5039127;28;20206;-61
2022/08/07 08:45:13;;;;;;;0.80;0.80;;;;;;;;;;5039571;28;20366;-61
2022/08/07 08:47:42;;;;;;;3.83;1.02;;;;;;;;;;5035194;28;20213;-60
2022/08/07 08:50:12;;;;;;;0.93;0.93;;;;;;;;;;5028908;28;20194;-61
2022/08/07 08:52:43;;;;;;;1.60;1.30;;;;;;;;;;5019497;28;20213;-61
2022/08/07 08:55:13;;;;;;;1.95;0.88;;;;;;;;;;5019280;28;20523;-61
2022/08/07 08:57:42;;;;;;;0.82;0.82;;;;;;;;;;5019194;28;20261;-61
2022/08/07 09:00:09;;;;;;;1.50;1.45;;;;;;;;;;5019497;28;20255;-61
2022/08/07 09:02:44;;;;;;;2.38;0.73;;;;;;;;;;5026519;28;20235;-60
2022/08/07 09:05:19;;;;;;;0.80;0.80;;;;;;;;;;5026954;28;20259;-61
2022/08/07 09:07:49;;;;;;;0.95;0.70;;;;;;;;;;5019329;28;20255;-61
2022/08/07 09:10:17;;;;;;;1.00;1.00;;;;;;;;;;5022705;28;20198;-61
2022/08/07 09:12:47;;;;;;;0.80;0.63;;;;;;;;;;5022580;28;20205;-61
2022/08/07 09:15:17;;;;;;;1.65;0.50;;;;;;;;;;5022411;28;20235;-61
2022/08/07 09:17:48;;;;;;;1.00;0.60;;;;;;;;;;5022214;28;20194;-61
2022/08/07 09:20:18;;;;;;;2.05;1.60;;;;;;;;;;5022337;28;20204;-61
2022/08/07 09:22:53;;;;;;;1.77;1.13;;;;;;;;;;5022610;28;20248;-61
2022/08/07 09:25:23;;;;;;;0.80;0.80;;;;;;;;;;5022409;28;20488;-61
2022/08/07 09:27:52;;;;;;;0.77;0.77;;;;;;;;;;5022071;28;20568;-61
2022/08/07 09:30:19;;;;;;;1.00;0.77;;;;;;;;;;5022115;28;20198;-61
2022/08/07 09:32:59;;;;;;;1.42;0.85;;;;;;;;;;5022008;28;20198;-61
2022/08/07 09:35:33;;;;;;;1.02;0.90;;;;;;;;;;5022357;28;20202;-61
2022/08/07 09:38:05;;;;;;;2.22;2.03;;;;;;;;;;5022074;28;20193;-61
2022/08/07 09:40:35;;;;;;;1.08;1.08;;;;;;;;;;5022013;28;20202;-61
2022/08/07 09:43:06;;;;;;;0.73;0.50;;;;;;;;;;5021890;28;20198;-61
2022/08/07 09:45:36;;;;;;;1.08;1.08;;;;;;;;;;5021997;28;20232;-61
2022/08/07 09:48:10;;;;;;;0.73;0.63;;;;;;;;;;5021626;28;20225;-61
2022/08/07 09:50:45;;;;;;;2.33;0.52;;;;;;;;;;5022165;28;20202;-61
2022/08/07 09:53:13;;;;;;;2.10;0.93;;;;;;;;;;5021757;28;20214;-61
2022/08/07 09:55:49;;;;;;;1.08;0.70;;;;;;;;;;5021597;28;20205;-61
2022/08/07 09:58:23;;;;;;;0.90;0.90;;;;;;;;;;5021789;28;20243;-61
2022/08/07 10:00:58;;;;;;;3.08;0.70;;;;;;;;;;5021782;28;20213;-61
2022/08/07 10:03:42;;;;;;;0.85;0.70;;;;;;;;;;5021736;28;20198;-61
2022/08/07 10:06:36;;;;;;;0.60;0.50;;;;;;;;;;5021184;28;20233;-61
2022/08/07 10:09:10;;;;;;;0.40;0.40;;;;;;;;;;5021777;28;20198;-61
2022/08/07 10:11:49;;;;;;;2.15;0.40;;;;;;;;;;5021710;28;20206;-61
2022/08/07 10:14:24;;;;;;;0.38;0.38;;;;;;;;;;5021466;28;20232;-61
2022/08/07 10:17:00;;;;;;;0.55;0.55;;;;;;;;;;5021434;28;20239;-61
2022/08/07 10:19:38;;;;;;;0.60;0.60;;;;;;;;;;5021042;28;20255;-61
2022/08/07 10:22:15;;;;;;;0.45;0.40;;;;;;;;;;5021203;28;20206;-63
2022/08/07 10:24:50;;;;;;;1.60;0.38;;;;;;;;;;5035793;27;20205;-63
2022/08/07 10:27:26;;;;;;;2.58;0.47;;;;;;;;;;5025604;28;20660;-62
2022/08/07 10:29:59;;;;;;;0.30;0.30;;;;;;;;;;5042821;27;20408;-62
2022/08/07 10:32:34;;;;;;;0.60;0.50;;;;;;;;;;5038055;28;20246;-62
2022/08/07 10:35:09;;;;;;;0.68;0.50;;;;;;;;;;5037784;28;20486;-61
2022/08/07 10:37:41;;;;;;;2.00;0.45;;;;;;;;;;5038046;28;20241;-61
2022/08/07 10:40:10;;;;;;;1.30;0.43;;;;;;;;;;5038286;28;20221;-61
2022/08/07 10:42:38;;;;;;;1.20;0.30;;;;;;;;;;5037959;28;20205;-63
2022/08/07 10:45:11;;;;;;;3.50;0.50;;;;;;;;;;5038191;28;20205;-63
2022/08/07 10:47:42;;;;;;;1.10;0.47;;;;;;;;;;5031096;28;20221;-62
2022/08/07 10:50:10;;;;;;;0.40;0.40;;;;;;;;;;5037904;28;20232;-64
2022/08/07 10:52:42;;;;;;;0.40;0.40;;;;;;;;;;5037964;28;20380;-63
2022/08/07 10:55:14;;;;;;;0.30;0.30;;;;;;;;;;5028111;28;20213;-63
2022/08/07 10:57:43;;;;;;;0.55;0.32;;;;;;;;;;5027589;28;20202;-62
2022/08/07 11:00:10;;;;;;;1.27;0.40;;;;;;;;;;5020347;28;20216;-61
2022/08/07 11:02:39;;;;;;;1.55;0.30;;;;;;;;;;5140301;27;20206;-62
2022/08/07 11:05:11;;;;;;;0.85;0.40;;;;;;;;;;5118306;27;20231;-62
2022/08/07 11:07:42;;;;;;;0.30;0.30;;;;;;;;;;5037430;28;20536;-61
2022/08/07 11:10:12;;;;;;;0.55;0.30;;;;;;;;;;5037651;28;20212;-62
2022/08/07 11:12:43;;;;;;;0.80;0.50;;;;;;;;;;5037874;28;20228;-62
2022/08/07 11:15:12;;;;;;;0.25;0.25;;;;;;;;;;5037743;28;20205;-62
2022/08/07 11:17:41;;;;;;;2.22;0.45;;;;;;;;;;5037549;28;20202;-62
2022/08/07 11:20:12;;;;;;;1.65;0.50;;;;;;;;;;5090253;27;20379;-63
2022/08/07 11:22:42;;;;;;;0.47;0.40;;;;;;;;;;5141569;27;20450;-62
2022/08/07 11:25:10;;;;;;;1.27;0.40;;;;;;;;;;5140545;27;20458;-70
2022/08/07 11:27:42;;;;;;;0.47;0.45;;;;;;;;;;5058287;27;20548;-70
2022/08/07 11:30:11;;;;;;;0.30;0.30;;;;;;;;;;5027105;28;20219;-69
2022/08/07 11:32:39;;;;;;;0.40;0.40;;;;;;;;;;5017472;28;20213;-69
2022/08/07 11:35:08;;;;;;;0.50;0.40;;;;;;;;;;5017354;28;20210;-69
2022/08/07 11:37:41;;;;;;;0.43;0.43;;;;;;;;;;5016734;28;20534;-69
2022/08/07 11:40:11;;;;;;;0.45;0.40;;;;;;;;;;5017776;28;20213;-70
2022/08/07 11:42:43;;;;;;;1.25;0.35;;;;;;;;;;5097109;27;20209;-69
2022/08/07 11:45:21;;;;;;;0.47;0.35;;;;;;;;;;5140952;27;20202;-69
2022/08/07 11:48:12;;;;;;;0.38;0.30;;;;;;;;;;5140668;27;20255;-69
2022/08/07 11:50:45;;;;;;;0.90;0.40;;;;;;;;;;5140802;27;20202;-70
2022/08/07 11:53:17;;;;;;;0.73;0.57;;;;;;;;;;5141131;27;20521;-69
2022/08/07 11:55:55;;;;;;;0.75;0.32;;;;;;;;;;5141055;27;20459;-70
2022/08/07 11:58:29;;;;;;;2.67;0.40;;;;;;;;;;5140938;27;20498;-69
2022/08/07 12:00:58;;;;;;;0.43;0.40;;;;;;;;;;5140917;27;20209;-69
2022/08/07 12:03:36;;;;;;;0.50;0.50;;;;;;;;;;5140849;27;20738;-69
2022/08/07 12:06:10;;;;;;;0.40;0.40;;;;;;;;;;5140592;27;20438;-69
2022/08/07 12:08:38;;;;;;;0.40;0.40;;;;;;;;;;5140539;27;20221;-69
2022/08/07 12:11:09;;;;;;;0.60;0.60;;;;;;;;;;5140480;27;20201;-69
2022/08/07 12:13:41;;;;;;;0.30;0.30;;;;;;;;;;5140630;27;20209;-70
2022/08/07 12:16:11;;;;;;;1.75;0.40;;;;;;;;;;5140280;27;20555;-69
2022/08/07 12:18:40;;;;;;;0.63;0.40;;;;;;;;;;5140615;27;20257;-69
2022/08/07 12:21:14;;;;;;;0.57;0.57;;;;;;;;;;5140543;28;20202;-69
2022/08/07 12:23:44;;;;;;;0.45;0.45;;;;;;;;;;5140292;28;20246;-69
2022/08/07 12:26:14;;;;;;;2.47;0.50;;;;;;;;;;5140267;28;20590;-69
2022/08/07 12:28:43;;;;;;;0.35;0.35;;;;;;;;;;5140183;28;20266;-69
2022/08/07 12:31:13;;;;;;;0.55;0.55;;;;;;;;;;5140277;28;20206;-69
2022/08/07 12:33:40;;;;;;;0.70;0.38;;;;;;;;;;5060862;28;20255;-71
2022/08/07 12:36:09;;;;;;;0.80;0.30;;;;;;;;;;5036062;28;20209;-71
2022/08/07 12:38:37;;;;;;;0.30;0.30;;;;;;;;;;5036247;28;20277;-71
2022/08/07 12:41:05;;;;;;;1.55;0.47;;;;;;;;;;5036491;28;20206;-71
2022/08/07 12:43:34;;;;;;;0.47;0.47;;;;;;;;;;5017900;28;20209;-70
2022/08/07 12:46:12;;;;;;;0.80;0.43;;;;;;;;;;5020015;28;20562;-70
2022/08/07 12:48:41;;;;;;;0.60;0.60;;;;;;;;;;5020175;28;20218;-70
2022/08/07 12:51:11;;;;;;;1.60;0.38;;;;;;;;;;5020390;28;20366;-70
2022/08/07 12:53:42;;;;;;;1.98;0.68;;;;;;;;;;5019864;28;20206;-70
2022/08/07 12:56:10;;;;;;;0.50;0.50;;;;;;;;;;5019791;28;20221;-69
2022/08/07 12:58:39;;;;;;;0.60;0.60;;;;;;;;;;5019487;28;20209;-71
2022/08/07 13:01:08;;;;;;;0.68;0.47;;;;;;;;;;5019728;28;20311;-72
2022/08/07 13:03:57;;;;;;;1.85;0.60;;;;;;;;;;5019862;28;20213;-71
2022/08/07 13:06:32;;;;;;;1.20;0.45;;;;;;;;;;5019335;28;20299;-70
2022/08/07 13:09:01;;;;;;;0.40;0.40;;;;;;;;;;5024533;27;20225;-70
2022/08/07 13:11:47;;;;;;;0.68;0.40;;;;;;;;;;5087417;27;20202;-72
2022/08/07 13:14:19;;;;;;;2.13;0.40;;;;;;;;;;5036047;28;20224;-72
2022/08/07 13:16:48;;;;;;;1.48;0.43;;;;;;;;;;5036107;28;20214;-71
2022/08/07 13:19:20;;;;;;;1.38;0.50;;;;;;;;;;5024417;28;20210;-72
2022/08/07 13:21:52;;;;;;;0.60;0.60;;;;;;;;;;5016431;28;20210;-72
2022/08/07 13:24:21;;;;;;;0.77;0.45;;;;;;;;;;5016166;28;20479;-72
2022/08/07 13:26:51;;;;;;;1.15;0.50;;;;;;;;;;5016233;28;20224;-72
2022/08/07 13:29:21;;;;;;;0.50;0.50;;;;;;;;;;5016276;28;20206;-72
2022/08/07 13:31:49;;;;;;;0.65;0.65;;;;;;;;;;5016564;28;20217;-71
2022/08/07 13:34:21;;;;;;;0.77;0.50;;;;;;;;;;5015891;28;20210;-70
2022/08/07 13:36:51;;;;;;;0.47;0.47;;;;;;;;;;5016082;28;20289;-71
2022/08/07 13:39:22;;;;;;;0.40;0.40;;;;;;;;;;5016480;28;20206;-71
2022/08/07 13:41:50;;;;;;;0.50;0.50;;;;;;;;;;5020474;28;20579;-71
2022/08/07 13:44:18;;;;;;;0.55;0.40;;;;;;;;;;5022031;28;20242;-71
2022/08/07 13:46:47;;;;;;;0.50;0.50;;;;;;;;;;5021575;28;20198;-71
2022/08/07 13:49:16;;;;;;;1.00;0.45;;;;;;;;;;5022005;28;20229;-71
2022/08/07 13:51:43;;;;;;;1.65;0.60;;;;;;;;;;5021945;28;20202;-71
2022/08/07 13:54:11;;;;;;;0.70;0.40;;;;;;;;;;5021222;28;20638;-71
2022/08/07 13:56:38;;;;;;;0.40;0.40;;;;;;;;;;5021060;28;20420;-71
2022/08/07 13:59:07;;;;;;;0.40;0.40;;;;;;;;;;5021697;28;20194;-71
2022/08/07 14:01:35;;;;;;;0.88;0.50;;;;;;;;;;5021630;28;20487;-71
2022/08/07 14:04:06;;;;;;;0.47;0.47;;;;;;;;;;5021538;28;20202;-71
2022/08/07 14:06:34;;;;;;;0.85;0.50;;;;;;;;;;5021229;28;20225;-71
2022/08/07 14:09:03;;;;;;;1.02;0.52;;;;;;;;;;5021358;28;20226;-71
2022/08/07 14:11:30;;;;;;;0.57;0.50;;;;;;;;;;5021289;28;20420;-71
2022/08/07 14:14:03;;;;;;;0.60;0.60;;;;;;;;;;5021412;28;20271;-71
2022/08/07 14:16:31;;;;;;;0.68;0.40;;;;;;;;;;5021739;28;20198;-71
2022/08/07 14:18:58;;;;;;;0.35;0.35;;;;;;;;;;5021592;28;20269;-71
2022/08/07 14:21:27;;;;;;;0.45;0.45;;;;;;;;;;5021597;28;20198;-71
2022/08/07 14:23:56;;;;;;;0.60;0.60;;;;;;;;;;5021440;28;20282;-71
2022/08/07 14:26:25;;;;;;;0.40;0.40;;;;;;;;;;5021532;28;20236;-71
2022/08/07 14:28:53;;;;;;;0.47;0.47;;;;;;;;;;5021087;28;20263;-71
2022/08/07 14:31:22;;;;;;;0.60;0.60;;;;;;;;;;5021427;28;20206;-71
2022/08/07 14:33:50;;;;;;;1.98;0.68;;;;;;;;;;5021507;28;20205;-71
2022/08/07 14:36:17;;;;;;;1.83;0.50;;;;;;;;;;5020975;28;20236;-71
2022/08/07 14:38:46;;;;;;;0.60;0.60;;;;;;;;;;5020970;28;20205;-71
2022/08/07 14:41:17;;;;;;;0.82;0.70;;;;;;;;;;5020923;28;20225;-71
2022/08/07 14:43:44;;;;;;;0.50;0.50;;;;;;;;;;5021240;28;20219;-71
2022/08/07 14:46:11;;;;;;;1.33;0.50;;;;;;;;;;5020877;28;20425;-71
2022/08/07 14:48:40;;;;;;;1.00;0.47;;;;;;;;;;5021127;28;20381;-71
2022/08/07 14:51:08;;;;;;;0.70;0.70;;;;;;;;;;5020949;28;20198;-71
2022/08/07 14:53:37;;;;;;;0.68;0.68;;;;;;;;;;5020616;28;20224;-71
2022/08/07 14:56:05;;;;;;;1.60;0.60;;;;;;;;;;5020460;28;20198;-71
2022/08/07 14:58:33;;;;;;;0.47;0.47;;;;;;;;;;5020254;28;20195;-71